You are not logged in, Click here to log in
機場資訊:RCKH Welcome to Taiwan Airways 台灣虛擬航空
ICAO: RCKH Country: 中華民國高雄市小港區中山四路2號
Latitude: 22.5746 Longitude: 120.345
Total Arrivals: 460 Total Departures: 535
Latest Arrival: ZV1057 (RCTP-RCKH)Arthur. Kung Latest Departure: CI302 (RCKH-RCSS)Arthur. Kung
Scenery:
METAR : RCKH 211530Z 02005KT 350V050 9999 FEW020 25/19 Q1011 NOSIG RMK A2988

高雄國際機場KHH